Birchwood Airport Birchwood US
ICAO: PABV
IATA:
Category: Medium
Scheduled Services:

Elevation: 83 ft
TransAlt. 18000 ft.

Airport Communications:
AWOS 3:135.55
ANCHORAGE CNTR:132.3
CTAF/UNICOM:123

PABV Zoom In..

Runways:

(A) RW 02L length 4010 ft width 100 ft
---- / hdg 14

(B) RW 02R length 2200 ft width 50 ft
---- / hdg 14

(C) RW 20L length 2200 ft width 50 ft
---- / hdg 194

(D) RW 20R length 4010 ft width 100 ft
---- / hdg 194

Location; PABV
Day. 22 / Time. 23.56 Zulu
* Altimeter: 29.64
* Temperature: -07° c. -19.4°f.
* Wind from: 180° Speed 05 kn.
Dewpoint: -12° c.
Visibility: 10 Statute Miles.
Clouds: Broken 6500 ft.
Clouds: Overcast 9500 ft.

PABV 222356Z AUTO 18005KT 10SM BKN065 OVC095 M07/M12 A2964 RMK AO2 SLP045 T10721117 11072 21117 58003 FZRANO $


Wind From 180°
Speed 05 kn.

YouTube Music Video
 
jpsmedia.com for Web Design  worldairports.se 2018   terms of use